Time;durP1;ratioP1;P1;durP2;ratioP2;P2;SDS_P1;SDS_P2;PMS_P1;PMS_P2;Temp;Humidity;BMP_temperature;BMP_pressure;BME280_temperature;BME280_humidity;BME280_pressure;Samples;Min_cycle;Max_cycle;Signal;HPM_P1;HPM_P2
2022/08/10 00:00:37;;;;;;;1.05;0.50;;;22.00;69.30;;;;;;5053227;28;20078;-76
2022/08/10 00:03:06;;;;;;;2.03;0.52;;;22.00;69.10;;;;;;5053250;28;20112;-76
2022/08/10 00:05:32;;;;;;;1.25;0.40;;;22.00;69.30;;;;;;5053806;28;20424;-76
2022/08/10 00:07:57;;;;;;;1.40;0.40;;;21.90;69.50;;;;;;5053355;28;20053;-75
2022/08/10 00:10:23;;;;;;;1.95;0.50;;;22.00;69.40;;;;;;5053210;28;20439;-75
2022/08/10 00:12:49;;;;;;;1.00;0.45;;;22.00;69.30;;;;;;5051939;28;20029;-76
2022/08/10 00:15:17;;;;;;;2.95;0.40;;;22.00;69.40;;;;;;5053237;28;20060;-75
2022/08/10 00:17:42;;;;;;;2.35;0.45;;;21.90;69.40;;;;;;5053045;28;20032;-75
2022/08/10 00:20:09;;;;;;;1.00;0.50;;;21.80;69.60;;;;;;5053241;28;20025;-76
2022/08/10 00:22:35;;;;;;;1.35;0.50;;;21.90;69.60;;;;;;5053382;28;20033;-76
2022/08/10 00:25:01;;;;;;;2.10;0.60;;;21.80;69.60;;;;;;5053061;28;20055;-75
2022/08/10 00:27:28;;;;;;;1.45;0.70;;;21.70;69.80;;;;;;5053207;28;20025;-75
2022/08/10 00:29:54;;;;;;;2.55;0.50;;;21.80;69.80;;;;;;5052790;28;20039;-75
2022/08/10 00:32:20;;;;;;;3.25;0.50;;;21.80;69.80;;;;;;5053004;28;20025;-76
2022/08/10 00:34:46;;;;;;;2.80;0.30;;;21.90;69.70;;;;;;5053225;28;20388;-76
2022/08/10 00:37:13;;;;;;;2.70;1.20;;;21.90;69.60;;;;;;5053199;28;20023;-76
2022/08/10 00:39:39;;;;;;;1.17;0.35;;;22.00;69.60;;;;;;5053241;28;20092;-76
2022/08/10 00:42:06;;;;;;;1.50;0.40;;;22.00;69.50;;;;;;5053023;28;20447;-76
2022/08/10 00:44:32;;;;;;;4.15;0.40;;;21.90;69.70;;;;;;5052878;28;20028;-76
2022/08/10 00:46:59;;;;;;;0.65;0.30;;;21.80;70.00;;;;;;5053277;28;20036;-76
2022/08/10 00:49:26;;;;;;;0.93;0.30;;;21.80;70.10;;;;;;5053103;28;20037;-76
2022/08/10 00:51:52;;;;;;;2.17;0.40;;;21.80;69.90;;;;;;5055346;28;20029;-76
2022/08/10 00:54:18;;;;;;;4.07;0.60;;;21.80;69.80;;;;;;5056801;28;20033;-76
2022/08/10 00:56:44;;;;;;;2.35;0.77;;;21.90;69.90;;;;;;5056946;28;20025;-76
2022/08/10 00:59:10;;;;;;;0.77;0.28;;;21.80;70.00;;;;;;5056860;28;20028;-76
2022/08/10 01:01:35;;;;;;;3.70;0.50;;;21.80;70.20;;;;;;5056971;28;20504;-76
2022/08/10 01:04:03;;;;;;;3.58;0.57;;;21.80;70.10;;;;;;5056709;28;20775;-76
2022/08/10 01:06:44;;;;;;;1.00;0.40;;;21.70;70.20;;;;;;5056674;28;20472;-76
2022/08/10 01:09:15;;;;;;;0.75;0.32;;;21.80;70.30;;;;;;5056650;28;20072;-76
2022/08/10 01:12:18;;;;;;;2.70;0.43;;;21.80;69.90;;;;;;5056405;28;20028;-76
2022/08/10 01:14:50;;;;;;;;;;;21.90;69.80;;;;;;5056896;28;20032;-76
2022/08/10 01:17:32;;;;;;;0.85;0.30;;;21.90;69.90;;;;;;5056528;28;19991;-75
2022/08/10 01:20:19;;;;;;;0.65;0.40;;;21.70;70.30;;;;;;5056624;28;20036;-75
2022/08/10 01:22:56;;;;;;;0.73;0.30;;;21.60;70.60;;;;;;5056606;28;20078;-75
2022/08/10 01:25:28;;;;;;;0.77;0.20;;;21.60;70.60;;;;;;5055958;28;20107;-75
2022/08/10 01:28:19;;;;;;;1.65;0.60;;;21.60;70.70;;;;;;5056296;28;20530;-75
2022/08/10 01:30:47;;;;;;;1.08;0.30;;;21.70;70.60;;;;;;5056200;28;20029;-75
2022/08/10 01:33:34;;;;;;;2.22;0.40;;;21.70;71.20;;;;;;5056261;28;20025;-75
2022/08/10 01:36:15;;;;;;;1.67;0.50;;;21.70;70.60;;;;;;5056231;28;20025;-76
2022/08/10 01:38:47;;;;;;;1.23;0.50;;;21.60;71.00;;;;;;5056150;28;20547;-75
2022/08/10 01:41:17;;;;;;;;;;;21.40;71.30;;;;;;5056419;28;20040;-75
2022/08/10 01:43:49;;;;;;;3.25;0.65;;;21.40;71.50;;;;;;5056351;28;19905;-75
2022/08/10 01:46:18;;;;;;;1.05;0.60;;;21.30;71.80;;;;;;5056074;28;20092;-76
2022/08/10 01:48:49;;;;;;;2.60;0.55;;;21.30;71.90;;;;;;5056119;28;20044;-76
2022/08/10 01:51:23;;;;;;;2.05;0.47;;;21.30;71.80;;;;;;5056245;28;20380;-76
2022/08/10 01:54:21;;;;;;;1.25;0.50;;;21.50;71.70;;;;;;5056133;28;20094;-75
2022/08/10 01:56:51;;;;;;;2.08;0.63;;;21.50;71.50;;;;;;5055132;28;20037;-75
2022/08/10 01:59:32;;;;;;;2.05;1.00;;;21.60;71.50;;;;;;5055829;28;20025;-76
2022/08/10 02:02:05;;;;;;;2.80;0.70;;;21.50;71.70;;;;;;5055534;28;20094;-76
2022/08/10 02:04:34;;;;;;;2.53;1.05;;;21.30;72.20;;;;;;5055320;28;20029;-75
2022/08/10 02:07:01;;;;;;;1.50;0.60;;;21.20;72.80;;;;;;5055783;28;20357;-75
2022/08/10 02:09:33;;;;;;;3.08;0.50;;;21.10;73.20;;;;;;5055302;28;20068;-75
2022/08/10 02:12:04;;;;;;;0.82;0.43;;;21.10;73.30;;;;;;5055779;28;20021;-75
2022/08/10 02:14:49;;;;;;;2.60;0.70;;;21.20;73.10;;;;;;5055525;28;20036;-75
2022/08/10 02:17:18;;;;;;;2.20;0.40;;;21.20;73.10;;;;;;5055651;28;20025;-75
2022/08/10 02:19:46;;;;;;;3.35;0.73;;;21.30;72.90;;;;;;5055362;28;20032;-75
2022/08/10 02:22:15;;;;;;;1.15;0.70;;;21.30;72.90;;;;;;5055274;28;20489;-75
2022/08/10 02:24:42;;;;;;;1.30;0.70;;;21.20;73.10;;;;;;5054963;28;20063;-75
2022/08/10 02:27:10;;;;;;;0.90;0.55;;;21.10;73.50;;;;;;5055171;28;20062;-75
2022/08/10 02:29:36;;;;;;;1.13;0.68;;;21.10;73.50;;;;;;5055359;28;20112;-75
2022/08/10 02:32:03;;;;;;;1.25;0.60;;;21.20;73.40;;;;;;5055044;28;20025;-75
2022/08/10 02:34:30;;;;;;;1.17;0.63;;;21.30;73.30;;;;;;5055091;28;20580;-75
2022/08/10 02:36:57;;;;;;;2.22;0.80;;;21.30;73.30;;;;;;5055211;28;20024;-75
2022/08/10 02:39:23;;;;;;;2.65;0.90;;;21.40;73.30;;;;;;5054978;28;20029;-75
2022/08/10 02:42:10;;;;;;;1.27;0.50;;;21.30;73.30;;;;;;5055143;28;20021;-75
2022/08/10 02:44:47;;;;;;;1.58;0.80;;;21.40;73.30;;;;;;5055001;28;20025;-75
2022/08/10 02:47:35;;;;;;;2.45;0.98;;;21.40;73.20;;;;;;5054932;28;20116;-75
2022/08/10 02:50:08;;;;;;;1.13;1.00;;;21.40;73.30;;;;;;5054758;28;20476;-75
2022/08/10 02:52:41;;;;;;;3.95;1.20;;;21.30;73.40;;;;;;5055120;28;20028;-75
2022/08/10 02:55:15;;;;;;;4.65;0.90;;;21.30;73.30;;;;;;5054742;28;20100;-75
2022/08/10 02:57:47;;;;;;;1.48;1.08;;;21.40;73.40;;;;;;5054750;28;20029;-75
2022/08/10 03:00:13;;;;;;;;;;;21.40;73.30;;;;;;5055335;28;20025;-76
2022/08/10 03:02:45;;;;;;;1.27;0.70;;;21.40;73.50;;;;;;5054524;28;19912;-75
2022/08/10 03:05:13;;;;;;;1.67;0.70;;;21.40;73.50;;;;;;5054825;28;20017;-75
2022/08/10 03:07:50;;;;;;;1.20;0.77;;;21.40;73.50;;;;;;5054625;28;20137;-75
2022/08/10 03:10:26;;;;;;;1.85;1.10;;;21.40;73.30;;;;;;5054637;28;20442;-75
2022/08/10 03:12:58;;;;;;;3.10;1.10;;;21.50;73.40;;;;;;5054594;28;20082;-75
2022/08/10 03:15:25;;;;;;;1.17;0.80;;;21.40;73.50;;;;;;5053637;28;20427;-75
2022/08/10 03:17:52;;;;;;;1.48;0.98;;;21.30;73.70;;;;;;5054388;28;20102;-75
2022/08/10 03:20:20;;;;;;;3.70;0.90;;;21.40;73.70;;;;;;5054166;28;20082;-75
2022/08/10 03:22:49;;;;;;;4.53;1.55;;;21.40;73.70;;;;;;5054455;28;20033;-75
2022/08/10 03:25:17;;;;;;;2.13;1.45;;;21.30;74.00;;;;;;5053576;28;20056;-75
2022/08/10 03:27:44;;;;;;;1.60;0.77;;;21.20;74.50;;;;;;5054356;28;20057;-75
2022/08/10 03:30:10;;;;;;;2.40;1.75;;;21.10;74.70;;;;;;5054101;28;20041;-75
2022/08/10 03:32:37;;;;;;;2.25;1.50;;;21.20;74.60;;;;;;5053920;28;20052;-75
2022/08/10 03:35:06;;;;;;;5.30;1.90;;;21.10;75.10;;;;;;5053689;28;20483;-75
2022/08/10 03:37:31;;;;;;;2.10;1.52;;;21.00;75.40;;;;;;5053847;28;20029;-75
2022/08/10 03:39:57;;;;;;;1.73;1.33;;;20.90;75.80;;;;;;5053804;28;20082;-75
2022/08/10 03:42:24;;;;;;;2.47;1.77;;;20.90;75.80;;;;;;5053849;28;20036;-75
2022/08/10 03:44:51;;;;;;;1.65;1.10;;;20.90;75.90;;;;;;5053995;28;20486;-75
2022/08/10 03:47:20;;;;;;;1.90;1.30;;;20.90;76.20;;;;;;5053985;28;20082;-75
2022/08/10 03:49:47;;;;;;;2.53;1.20;;;20.90;76.20;;;;;;5053538;28;20116;-75
2022/08/10 03:52:15;;;;;;;2.55;1.73;;;20.90;76.00;;;;;;5053891;28;20402;-75
2022/08/10 03:54:42;;;;;;;2.13;1.30;;;20.90;76.30;;;;;;5053540;28;20025;-75
2022/08/10 03:57:08;;;;;;;3.22;2.40;;;20.80;76.40;;;;;;5053504;28;20025;-74
2022/08/10 03:59:35;;;;;;;4.15;2.25;;;20.80;76.80;;;;;;5053410;28;20473;-75
2022/08/10 04:02:02;;;;;;;2.78;1.95;;;20.70;77.20;;;;;;5053650;28;20028;-75
2022/08/10 04:04:28;;;;;;;2.15;1.58;;;20.60;77.30;;;;;;5053200;28;20539;-75
2022/08/10 04:06:57;;;;;;;2.85;1.98;;;20.70;77.30;;;;;;5053255;28;20024;-75
2022/08/10 04:09:28;;;;;;;2.40;1.85;;;20.70;77.50;;;;;;5053548;28;20044;-75
2022/08/10 04:11:54;;;;;;;2.40;1.60;;;20.70;77.60;;;;;;5053085;28;20454;-75
2022/08/10 04:14:19;;;;;;;2.70;2.25;;;20.70;77.50;;;;;;5053301;28;20056;-74
2022/08/10 04:16:45;;;;;;;4.68;2.38;;;20.70;77.50;;;;;;5053557;28;20100;-75
2022/08/10 04:19:13;;;;;;;3.13;1.80;;;20.60;77.80;;;;;;5053377;28;20027;-75
2022/08/10 04:21:44;;;;;;;3.58;2.55;;;20.60;77.80;;;;;;5053406;28;20029;-75
2022/08/10 04:24:17;;;;;;;2.88;2.30;;;20.60;78.80;;;;;;5053030;28;20121;-74
2022/08/10 04:26:43;;;;;;;2.88;1.63;;;20.40;78.80;;;;;;5052875;28;20021;-75
2022/08/10 04:29:09;;;;;;;2.67;1.92;;;20.40;78.80;;;;;;5053358;28;20083;-75
2022/08/10 04:31:36;;;;;;;3.45;2.15;;;20.50;78.50;;;;;;5053414;28;20028;-75
2022/08/10 04:34:02;;;;;;;3.53;1.75;;;20.60;78.20;;;;;;5053176;28;20025;-75
2022/08/10 04:36:28;;;;;;;2.38;2.13;;;20.80;77.90;;;;;;5053318;28;20088;-75
2022/08/10 04:38:54;;;;;;;2.97;2.05;;;20.90;77.60;;;;;;5053156;28;20029;-75
2022/08/10 04:41:20;;;;;;;5.28;2.75;;;20.90;77.60;;;;;;5052960;28;20108;-75
2022/08/10 04:43:46;;;;;;;3.80;1.92;;;20.90;77.80;;;;;;5052984;28;20516;-75
2022/08/10 04:46:12;;;;;;;3.20;2.25;;;20.80;78.00;;;;;;5052998;28;20162;-75
2022/08/10 04:48:37;;;;;;;4.10;2.58;;;20.80;78.20;;;;;;5052780;28;20033;-75
2022/08/10 04:51:03;;;;;;;4.70;3.00;;;20.60;78.70;;;;;;5053171;28;20037;-74
2022/08/10 04:53:29;;;;;;;3.30;2.58;;;20.50;79.00;;;;;;5052829;28;20021;-75
2022/08/10 04:55:55;;;;;;;4.75;3.42;;;20.60;79.10;;;;;;5053065;28;20021;-75
2022/08/10 04:58:20;;;;;;;4.97;3.30;;;20.60;79.20;;;;;;5052884;28;20522;-75
2022/08/10 05:00:46;;;;;;;4.50;3.58;;;20.50;79.60;;;;;;5052884;28;20028;-75
2022/08/10 05:03:11;;;;;;;3.10;2.38;;;20.40;80.00;;;;;;5052450;28;20126;-75
2022/08/10 05:05:37;;;;;;;4.75;2.60;;;20.40;79.90;;;;;;5052813;28;20029;-75
2022/08/10 05:08:03;;;;;;;4.47;2.90;;;20.60;79.70;;;;;;5052442;28;20029;-75
2022/08/10 05:10:28;;;;;;;3.63;3.30;;;20.60;79.40;;;;;;5052758;28;20484;-75
2022/08/10 05:12:54;;;;;;;4.25;2.15;;;20.60;79.30;;;;;;5052631;28;20045;-75
2022/08/10 05:15:23;;;;;;;4.80;2.70;;;20.70;79.20;;;;;;5052464;28;20435;-75
2022/08/10 05:17:49;;;;;;;4.30;3.72;;;20.80;79.00;;;;;;5052341;28;20060;-75
2022/08/10 05:20:14;;;;;;;7.75;3.85;;;20.60;79.60;;;;;;5052482;28;20056;-75
2022/08/10 05:22:41;;;;;;;5.78;4.38;;;20.40;80.30;;;;;;5052576;28;20075;-75
2022/08/10 05:25:14;;;;;;;4.88;4.20;;;20.30;81.00;;;;;;5052072;28;20075;-74
2022/08/10 05:27:40;;;;;;;4.95;3.95;;;20.10;81.50;;;;;;5052436;28;20074;-75
2022/08/10 05:30:08;;;;;;;5.80;4.10;;;20.10;81.80;;;;;;5052272;28;20373;-75
2022/08/10 05:32:34;;;;;;;5.05;4.10;;;20.20;81.60;;;;;;5052491;28;20384;-74
2022/08/10 05:35:00;;;;;;;5.47;3.22;;;20.20;81.80;;;;;;5052108;28;20021;-74
2022/08/10 05:37:27;;;;;;;5.65;3.90;;;20.20;81.80;;;;;;5052484;28;20028;-75
2022/08/10 05:39:54;;;;;;;4.97;3.88;;;20.30;81.70;;;;;;5055783;28;20036;-74
2022/08/10 05:42:21;;;;;;;5.38;4.18;;;20.40;81.70;;;;;;5056135;28;20025;-75
2022/08/10 05:44:47;;;;;;;5.55;3.72;;;20.40;81.70;;;;;;5055690;28;20086;-75
2022/08/10 05:47:13;;;;;;;8.23;3.67;;;20.40;81.80;;;;;;5055891;28;20021;-75
2022/08/10 05:49:39;;;;;;;4.40;3.63;;;20.50;81.60;;;;;;5055781;28;20037;-75
2022/08/10 05:52:05;;;;;;;5.03;3.58;;;20.40;81.90;;;;;;5056181;28;20098;-74
2022/08/10 05:54:30;;;;;;;4.47;3.28;;;20.50;81.80;;;;;;5055728;28;20464;-75
2022/08/10 05:56:56;;;;;;;5.25;3.58;;;20.60;81.50;;;;;;5055828;28;20017;-75
2022/08/10 05:59:24;;;;;;;3.72;3.33;;;20.70;81.10;;;;;;5055661;28;20025;-75
2022/08/10 06:01:52;;;;;;;5.22;3.70;;;20.80;80.70;;;;;;5055546;28;20025;-75
2022/08/10 06:04:25;;;;;;;3.88;3.17;;;20.80;80.70;;;;;;5055933;28;20056;-75
2022/08/10 06:06:53;;;;;;;5.10;3.47;;;20.80;80.60;;;;;;5055707;28;20025;-75
2022/08/10 06:09:20;;;;;;;4.90;2.85;;;20.80;80.80;;;;;;5054932;28;20029;-75
2022/08/10 06:11:49;;;;;;;6.07;2.92;;;20.80;80.80;;;;;;5055119;28;20388;-75
2022/08/10 06:17:02;;;;;;;4.07;3.17;;;21.00;80.30;;;;;;5055529;28;20082;-75
2022/08/10 06:19:29;;;;;;;4.60;3.03;;;21.10;80.00;;;;;;5055418;28;20052;-75
2022/08/10 06:21:57;;;;;;;4.60;3.15;;;21.10;79.60;;;;;;5055100;28;20055;-75
2022/08/10 06:24:25;;;;;;;2.63;2.42;;;21.10;79.70;;;;;;5054684;28;20041;-75
2022/08/10 06:26:51;;;;;;;4.25;3.10;;;21.20;79.60;;;;;;5055346;28;20044;-75
2022/08/10 06:29:18;;;;;;;6.55;2.65;;;21.10;79.60;;;;;;5055041;28;20447;-75
2022/08/10 06:31:48;;;;;;;4.55;2.97;;;21.00;79.70;;;;;;5054937;28;20507;-75
2022/08/10 06:34:19;;;;;;;5.45;2.70;;;21.10;79.60;;;;;;5055405;28;20066;-75
2022/08/10 06:36:46;;;;;;;4.40;2.40;;;21.20;79.10;;;;;;5054870;28;20033;-75
2022/08/10 06:39:12;;;;;;;2.55;1.70;;;21.30;78.90;;;;;;5054787;28;20018;-75
2022/08/10 06:41:47;;;;;;;8.82;3.30;;;21.40;78.90;;;;;;5054850;28;20044;-75
2022/08/10 06:44:18;;;;;;;4.68;2.35;;;21.50;78.40;;;;;;5054839;28;20488;-75
2022/08/10 06:46:47;;;;;;;4.88;2.05;;;21.70;78.00;;;;;;5054792;28;20040;-75
2022/08/10 06:49:14;;;;;;;6.97;2.35;;;21.70;77.90;;;;;;5054088;28;20480;-75
2022/08/10 06:51:42;;;;;;;3.67;1.80;;;21.70;77.40;;;;;;5054966;28;20025;-75
2022/08/10 06:54:11;;;;;;;3.35;2.00;;;21.60;77.10;;;;;;5054734;28;20024;-75
2022/08/10 06:56:41;;;;;;;3.10;2.00;;;21.60;77.50;;;;;;5054872;28;20029;-75
2022/08/10 06:59:26;;;;;;;3.58;1.80;;;21.60;77.90;;;;;;5054993;28;20025;-75
2022/08/10 07:02:08;;;;;;;6.43;1.83;;;21.70;77.00;;;;;;5054478;28;20047;-75
2022/08/10 07:04:41;;;;;;;5.22;1.90;;;21.80;77.00;;;;;;5054330;28;20025;-75
2022/08/10 07:07:08;;;;;;;4.18;1.67;;;22.00;76.10;;;;;;5054753;28;20086;-75
2022/08/10 07:09:38;;;;;;;2.72;1.23;;;22.00;74.80;;;;;;5054346;28;20392;-75
2022/08/10 07:12:06;;;;;;;2.65;1.40;;;22.10;74.50;;;;;;5054649;28;20017;-75
2022/08/10 07:14:35;;;;;;;4.40;1.35;;;22.20;74.80;;;;;;5054297;28;20075;-75
2022/08/10 07:17:03;;;;;;;3.53;1.20;;;22.30;73.80;;;;;;5053970;28;20067;-76
2022/08/10 07:19:31;;;;;;;2.83;1.17;;;22.40;73.40;;;;;;5054309;28;20366;-75
2022/08/10 07:21:58;;;;;;;3.70;1.40;;;22.50;72.10;;;;;;5054443;28;20423;-75
2022/08/10 07:24:25;;;;;;;3.65;1.08;;;22.60;71.50;;;;;;5054062;28;20121;-75
2022/08/10 07:26:54;;;;;;;2.95;1.17;;;22.70;71.70;;;;;;5053935;28;20353;-75
2022/08/10 07:29:27;;;;;;;2.10;1.05;;;22.80;72.50;;;;;;5054247;28;20072;-75
2022/08/10 07:31:55;;;;;;;2.75;1.10;;;23.00;70.40;;;;;;5053961;28;20366;-75
2022/08/10 07:34:22;;;;;;;3.90;1.17;;;23.00;69.80;;;;;;5054017;28;20025;-75
2022/08/10 07:36:51;;;;;;;3.38;0.90;;;23.10;69.60;;;;;;5054220;28;20029;-75
2022/08/10 07:39:18;;;;;;;2.67;0.73;;;23.20;69.90;;;;;;5053757;28;20025;-75
2022/08/10 07:41:48;;;;;;;3.70;0.95;;;23.30;70.10;;;;;;5053926;28;20028;-75
2022/08/10 07:44:14;;;;;;;3.55;0.70;;;23.40;68.10;;;;;;5054091;28;20384;-75
2022/08/10 07:46:44;;;;;;;2.75;1.38;;;23.50;68.00;;;;;;5053896;28;20445;-75
2022/08/10 07:49:24;;;;;;;4.65;1.10;;;23.60;67.20;;;;;;5053827;28;20041;-75
2022/08/10 07:51:51;;;;;;;2.22;0.85;;;23.70;67.10;;;;;;5053815;28;20063;-76
2022/08/10 07:54:19;;;;;;;3.03;1.00;;;23.80;67.10;;;;;;5053472;28;20029;-76
2022/08/10 07:56:49;;;;;;;7.00;1.23;;;24.00;65.90;;;;;;5053845;28;20021;-76
2022/08/10 07:59:19;;;;;;;4.15;0.90;;;24.10;66.00;;;;;;5053900;28;20021;-76
2022/08/10 08:01:51;;;;;;;2.47;1.00;;;24.20;65.80;;;;;;5053012;28;20025;-76
2022/08/10 08:04:19;;;;;;;2.42;1.00;;;24.20;65.90;;;;;;5053142;28;20421;-76
2022/08/10 08:06:46;;;;;;;3.30;0.80;;;24.30;65.70;;;;;;5053616;28;20021;-76
2022/08/10 08:09:12;;;;;;;3.90;0.73;;;24.50;66.00;;;;;;5053388;28;20467;-76
2022/08/10 08:11:41;;;;;;;3.88;0.80;;;24.60;64.40;;;;;;5053402;28;20039;-76
2022/08/10 08:14:08;;;;;;;5.47;1.17;;;24.80;64.00;;;;;;5053310;28;20468;-76
2022/08/10 08:16:37;;;;;;;5.28;0.82;;;25.00;64.00;;;;;;5053200;28;20033;-76
2022/08/10 08:19:03;;;;;;;3.58;0.65;;;25.10;62.60;;;;;;5053377;28;20029;-76
2022/08/10 08:21:29;;;;;;;3.10;0.70;;;25.20;63.50;;;;;;5053460;28;20048;-76
2022/08/10 08:23:56;;;;;;;3.65;0.70;;;25.30;62.90;;;;;;5052876;28;20090;-76
2022/08/10 08:26:23;;;;;;;3.03;0.70;;;25.50;61.70;;;;;;5053288;28;20029;-76
2022/08/10 08:28:50;;;;;;;4.25;1.02;;;25.70;60.40;;;;;;5052749;28;20036;-76
2022/08/10 08:31:17;;;;;;;2.25;0.82;;;25.70;61.00;;;;;;5053205;28;20598;-76
2022/08/10 08:33:44;;;;;;;3.55;0.85;;;25.80;61.20;;;;;;5052888;28;20500;-76
2022/08/10 08:36:12;;;;;;;4.43;0.73;;;26.00;61.30;;;;;;5052828;28;20532;-76
2022/08/10 08:38:39;;;;;;;3.97;1.00;;;26.10;60.20;;;;;;5053330;28;20036;-76
2022/08/10 08:41:27;;;;;;;2.00;0.77;;;26.20;59.80;;;;;;5053169;28;20021;-76
2022/08/10 08:44:19;;;;;;;3.55;0.90;;;26.40;58.60;;;;;;5052920;28;20021;-76
2022/08/10 08:47:05;;;;;;;2.15;0.90;;;26.60;57.50;;;;;;5042431;28;20044;-76
2022/08/10 08:49:52;;;;;;;3.22;0.70;;;26.70;57.20;;;;;;5052833;28;20515;-76
2022/08/10 08:52:50;;;;;;;2.47;0.68;;;26.80;57.80;;;;;;5053172;28;20415;-76
2022/08/10 08:55:52;;;;;;;1.90;0.90;;;26.90;57.10;;;;;;5049534;28;20029;-76
2022/08/10 08:58:46;;;;;;;5.20;1.20;;;27.00;57.20;;;;;;5052388;28;20028;-76
2022/08/10 09:01:49;;;;;;;3.05;0.90;;;27.10;56.80;;;;;;5052749;28;20025;-77
2022/08/10 09:04:32;;;;;;;;;;;27.30;56.70;;;;;;5053164;28;20485;-77
2022/08/10 09:07:06;;;;;;;4.60;0.73;;;27.40;56.20;;;;;;5052409;28;19935;-76
2022/08/10 09:09:43;;;;;;;3.35;1.00;;;27.40;55.60;;;;;;5052754;28;20044;-77
2022/08/10 09:12:18;;;;;;;2.10;0.82;;;27.50;55.60;;;;;;5052851;28;20092;-77
2022/08/10 09:15:00;;;;;;;3.10;0.88;;;27.60;55.00;;;;;;5056167;28;20061;-77
2022/08/10 09:17:52;;;;;;;3.05;0.90;;;27.70;55.00;;;;;;5056170;28;20070;-77
2022/08/10 09:20:33;;;;;;;1.95;0.80;;;27.80;54.60;;;;;;5056319;28;20029;-76
2022/08/10 09:23:17;;;;;;;2.85;0.80;;;27.90;53.40;;;;;;5056365;28;20028;-76
2022/08/10 09:25:52;;;;;;;2.30;0.70;;;28.00;52.90;;;;;;5056119;28;20033;-76
2022/08/10 09:28:26;;;;;;;3.25;0.80;;;28.10;52.70;;;;;;5056050;28;20404;-76
2022/08/10 09:31:01;;;;;;;3.22;0.80;;;28.30;52.60;;;;;;5056213;28;20087;-76
2022/08/10 09:33:41;;;;;;;7.40;1.05;;;28.20;52.50;;;;;;5056324;28;20056;-76
2022/08/10 09:36:45;;;;;;;4.63;0.85;;;28.30;52.70;;;;;;5056104;28;20028;-76
2022/08/10 09:39:21;;;;;;;5.15;1.10;;;28.30;52.80;;;;;;5055878;28;20122;-76
2022/08/10 09:41:56;;;;;;;6.05;0.98;;;28.40;53.50;;;;;;5056075;28;20025;-76
2022/08/10 09:44:38;;;;;;;4.57;1.10;;;28.40;53.50;;;;;;5056316;28;20029;-76
2022/08/10 09:47:41;;;;;;;4.50;0.68;;;28.50;52.40;;;;;;5056107;28;20475;-77
2022/08/10 09:50:44;;;;;;;5.45;0.80;;;28.50;51.30;;;;;;5033798;28;20489;-77
2022/08/10 09:53:33;;;;;;;3.50;0.45;;;28.70;51.20;;;;;;4975053;28;20545;-77
2022/08/10 09:56:13;;;;;;;3.83;0.73;;;28.80;50.30;;;;;;5053456;28;20095;-76
2022/08/10 09:59:09;;;;;;;2.88;0.60;;;28.70;50.50;;;;;;5055845;28;20032;-76
2022/08/10 10:01:58;;;;;;;4.03;0.70;;;28.80;51.60;;;;;;5055834;28;20044;-76
2022/08/10 10:04:36;;;;;;;1.80;0.60;;;28.80;50.20;;;;;;5055769;28;20027;-76
2022/08/10 10:07:05;;;;;;;4.95;0.60;;;29.00;50.80;;;;;;5055404;28;20036;-77
2022/08/10 10:09:53;;;;;;;3.10;0.68;;;29.20;50.00;;;;;;5055585;28;20114;-77
2022/08/10 10:12:30;;;;;;;2.67;0.45;;;29.20;49.40;;;;;;5055587;28;20107;-76
2022/08/10 10:16:00;;;;;;;2.63;0.60;;;29.30;50.60;;;;;;5055575;28;20055;-77
2022/08/10 10:18:46;;;;;;;2.35;0.40;;;29.40;49.50;;;;;;5014970;28;20119;-77
2022/08/10 10:21:24;;;;;;;3.50;0.50;;;29.40;48.40;;;;;;5055738;28;20029;-76
2022/08/10 10:23:55;;;;;;;1.40;0.30;;;29.50;48.80;;;;;;5054726;28;20040;-77
2022/08/10 10:26:35;;;;;;;1.75;0.50;;;29.50;49.50;;;;;;5055069;28;20037;-77
2022/08/10 10:29:22;;;;;;;2.28;0.50;;;29.60;48.00;;;;;;5055221;28;20039;-76
2022/08/10 10:32:00;;;;;;;3.65;0.60;;;29.70;48.80;;;;;;5054725;28;20511;-77
2022/08/10 10:34:43;;;;;;;2.88;0.80;;;29.60;48.00;;;;;;5054857;28;20526;-77
2022/08/10 10:37:10;;;;;;;2.35;0.73;;;29.80;47.80;;;;;;5055163;28;20029;-77
2022/08/10 10:39:40;;;;;;;0.47;0.20;;;29.80;47.10;;;;;;5055152;28;20032;-77
2022/08/10 10:42:26;;;;;;;1.40;0.38;;;29.90;46.70;;;;;;5054767;28;20476;-77
2022/08/10 10:44:57;;;;;;;1.45;0.38;;;30.00;47.40;;;;;;5054719;28;20125;-77
2022/08/10 10:47:48;;;;;;;1.90;0.55;;;30.10;46.80;;;;;;5055099;28;20028;-77
2022/08/10 10:50:42;;;;;;;1.38;0.40;;;30.10;47.70;;;;;;5054766;28;20037;-77
2022/08/10 10:53:27;;;;;;;2.95;0.50;;;30.10;47.80;;;;;;5054763;28;20452;-77
2022/08/10 10:56:10;;;;;;;3.17;0.30;;;30.00;48.80;;;;;;5054630;28;20401;-77
2022/08/10 10:58:47;;;;;;;3.90;0.30;;;30.10;48.40;;;;;;5054866;28;20060;-77
2022/08/10 11:01:31;;;;;;;1.88;0.38;;;30.10;48.50;;;;;;5054555;28;20021;-77
2022/08/10 11:04:24;;;;;;;2.53;0.40;;;30.20;47.90;;;;;;5054398;28;20117;-77
2022/08/10 11:07:31;;;;;;;1.80;0.30;;;30.20;47.70;;;;;;5054538;28;20036;-77
2022/08/10 11:09:59;;;;;;;1.60;0.35;;;30.30;47.30;;;;;;5054229;28;20033;-77
2022/08/10 11:12:38;;;;;;;2.30;0.50;;;30.50;49.00;;;;;;5054702;28;20045;-77
2022/08/10 11:15:08;;;;;;;4.25;0.30;;;30.60;46.90;;;;;;5054676;28;20430;-77
2022/08/10 11:17:47;;;;;;;3.60;0.30;;;30.60;47.70;;;;;;5054307;28;20100;-77
2022/08/10 11:20:28;;;;;;;5.63;0.40;;;30.70;46.50;;;;;;5054135;28;20159;-77
2022/08/10 11:23:24;;;;;;;1.90;0.37;;;30.70;46.80;;;;;;5054065;28;20439;-77
2022/08/10 11:26:09;;;;;;;2.15;0.50;;;30.80;46.60;;;;;;5053968;28;20140;-77
2022/08/10 11:29:01;;;;;;;1.08;0.30;;;30.80;47.00;;;;;;5053634;28;20036;-77
2022/08/10 11:31:32;;;;;;;;;;;30.90;46.90;;;;;;5054638;28;20037;-77
2022/08/10 11:34:26;;;;;;;1.55;0.30;;;31.00;47.10;;;;;;5054200;28;20057;-77
2022/08/10 11:37:03;;;;;;;;;;;31.00;46.10;;;;;;5053162;28;20025;-77
2022/08/10 11:39:33;;;;;;;0.40;0.20;;;31.00;46.80;;;;;;5054128;28;19912;-77
2022/08/10 11:42:09;;;;;;;1.90;0.40;;;31.10;46.20;;;;;;5054122;28;20092;-77
2022/08/10 11:44:47;;;;;;;3.42;0.40;;;31.20;45.50;;;;;;5053838;28;20477;-77
2022/08/10 11:47:18;;;;;;;2.78;0.30;;;31.30;46.00;;;;;;5053609;28;20440;-77
2022/08/10 11:49:56;;;;;;;2.75;0.40;;;31.40;45.30;;;;;;5053751;28;20048;-77
2022/08/10 11:52:33;;;;;;;2.58;0.35;;;31.50;45.30;;;;;;5053452;28;20479;-77
2022/08/10 11:55:09;;;;;;;2.97;0.38;;;31.60;45.40;;;;;;5053828;28;20037;-77
2022/08/10 11:57:36;;;;;;;3.60;0.45;;;31.60;44.40;;;;;;5053808;28;20032;-77
2022/08/10 12:00:06;;;;;;;1.42;0.40;;;31.60;43.90;;;;;;5053902;28;20040;-77
2022/08/10 12:02:52;;;;;;;2.22;0.32;;;31.60;44.30;;;;;;5053446;28;20021;-77
2022/08/10 12:05:31;;;;;;;3.17;0.30;;;31.50;43.80;;;;;;5053494;28;20032;-77
2022/08/10 12:07:59;;;;;;;2.67;0.38;;;31.50;44.30;;;;;;5053403;28;20029;-77
2022/08/10 12:10:25;;;;;;;0.73;0.30;;;31.70;45.20;;;;;;5053228;28;20507;-77
2022/08/10 12:13:16;;;;;;;1.10;0.32;;;31.80;44.50;;;;;;5053361;28;20021;-77
2022/08/10 12:16:02;;;;;;;3.10;0.50;;;32.00;44.10;;;;;;5053685;28;20031;-77
2022/08/10 12:18:48;;;;;;;1.00;0.30;;;32.10;44.10;;;;;;5052950;28;20070;-77
2022/08/10 12:21:25;;;;;;;1.10;0.45;;;32.10;43.20;;;;;;5041875;28;20040;-77
2022/08/10 12:24:22;;;;;;;1.52;0.30;;;32.20;42.70;;;;;;5053339;28;20048;-77
2022/08/10 12:27:28;;;;;;;1.55;0.30;;;32.30;42.40;;;;;;5053008;28;20025;-77
2022/08/10 12:30:02;;;;;;;2.85;0.30;;;32.30;42.20;;;;;;5053215;28;20033;-77
2022/08/10 12:32:34;;;;;;;3.55;0.85;;;32.40;42.80;;;;;;5052986;28;20021;-77
2022/08/10 12:35:02;;;;;;;1.00;0.32;;;32.40;42.60;;;;;;5053461;28;20028;-77
2022/08/10 12:37:43;;;;;;;1.88;0.50;;;32.40;42.60;;;;;;5052965;28;20072;-77
2022/08/10 12:40:18;;;;;;;1.63;0.30;;;32.50;41.70;;;;;;5053360;28;20104;-77
2022/08/10 12:43:05;;;;;;;1.52;0.38;;;32.40;41.10;;;;;;5052677;28;20029;-76
2022/08/10 12:45:59;;;;;;;1.42;0.40;;;32.50;41.10;;;;;;5053022;28;20025;-76
2022/08/10 12:48:28;;;;;;;0.95;0.30;;;32.50;40.90;;;;;;5044510;28;20522;-76
2022/08/10 12:51:22;;;;;;;1.63;0.82;;;32.50;41.50;;;;;;5057125;28;20117;-76
2022/08/10 12:53:56;;;;;;;2.20;0.40;;;32.60;41.30;;;;;;5056443;28;20055;-78
2022/08/10 12:56:28;;;;;;;0.98;0.30;;;32.70;40.50;;;;;;5057296;28;20053;-78
2022/08/10 12:58:56;;;;;;;2.25;0.40;;;32.80;40.90;;;;;;5057182;28;20029;-78
2022/08/10 13:01:28;;;;;;;1.75;0.40;;;33.00;41.50;;;;;;5057040;28;20025;-78
2022/08/10 13:03:57;;;;;;;2.50;0.40;;;33.00;41.30;;;;;;5057036;28;20029;-78
2022/08/10 13:06:25;;;;;;;2.42;0.35;;;32.90;41.30;;;;;;5056726;28;20101;-78
2022/08/10 13:09:07;;;;;;;3.80;0.30;;;33.00;39.90;;;;;;5056958;28;20039;-78
2022/08/10 13:11:37;;;;;;;1.00;0.40;;;33.00;37.60;;;;;;5057057;28;20370;-78
2022/08/10 13:14:10;;;;;;;0.82;0.40;;;32.90;38.20;;;;;;5056938;28;20086;-78
2022/08/10 13:16:36;;;;;;;1.27;0.40;;;32.80;39.70;;;;;;5056516;28;20040;-78
2022/08/10 13:19:04;;;;;;;1.33;0.35;;;33.00;39.80;;;;;;5056666;28;20032;-78
2022/08/10 13:21:34;;;;;;;1.42;0.30;;;33.00;40.40;;;;;;5056541;28;20020;-78